sensor_id;sensor_type;location;lat;lon;timestamp;pressure;altitude;pressure_sealevel;temperature;humidity
64872;BME280;51351;51.450;6.614;2024-01-16T00:01:57;100758.00;;;0.57;100.00
64872;BME280;51351;51.450;6.614;2024-01-16T00:04:23;100767.63;;;0.53;100.00
64872;BME280;51351;51.450;6.614;2024-01-16T00:06:48;100766.84;;;0.51;100.00
64872;BME280;51351;51.450;6.614;2024-01-16T00:09:14;100757.47;;;0.50;100.00
64872;BME280;51351;51.450;6.614;2024-01-16T00:11:43;100763.63;;;0.46;100.00
64872;BME280;51351;51.450;6.614;2024-01-16T00:14:08;100763.72;;;0.45;100.00
64872;BME280;51351;51.450;6.614;2024-01-16T00:16:50;100767.28;;;0.42;100.00
64872;BME280;51351;51.450;6.614;2024-01-16T00:19:15;100767.28;;;0.42;100.00
64872;BME280;51351;51.450;6.614;2024-01-16T00:21:41;100771.59;;;0.42;100.00
64872;BME280;51351;51.450;6.614;2024-01-16T00:24:07;100768.19;;;0.41;100.00
64872;BME280;51351;51.450;6.614;2024-01-16T00:26:33;100773.25;;;0.43;100.00
64872;BME280;51351;51.450;6.614;2024-01-16T00:28:58;100783.53;;;0.43;100.00
64872;BME280;51351;51.450;6.614;2024-01-16T00:31:24;100774.91;;;0.44;100.00
64872;BME280;51351;51.450;6.614;2024-01-16T00:33:49;100768.97;;;0.43;100.00
64872;BME280;51351;51.450;6.614;2024-01-16T00:36:15;100791.22;;;0.43;100.00
64872;BME280;51351;51.450;6.614;2024-01-16T00:38:40;100786.09;;;0.43;100.00
64872;BME280;51351;51.450;6.614;2024-01-16T00:41:06;100786.16;;;0.41;100.00
64872;BME280;51351;51.450;6.614;2024-01-16T00:43:32;100788.66;;;0.43;100.00
64872;BME280;51351;51.450;6.614;2024-01-16T00:45:58;100794.66;;;0.43;100.00
64872;BME280;51351;51.450;6.614;2024-01-16T00:48:23;100792.09;;;0.43;100.00
64872;BME280;51351;51.450;6.614;2024-01-16T00:50:49;100797.13;;;0.45;100.00
64872;BME280;51351;51.450;6.614;2024-01-16T00:53:16;100795.47;;;0.44;100.00
64872;BME280;51351;51.450;6.614;2024-01-16T00:55:41;100790.31;;;0.44;100.00
64872;BME280;51351;51.450;6.614;2024-01-16T00:58:07;100791.22;;;0.43;100.00
64872;BME280;51351;51.450;6.614;2024-01-16T01:00:32;100793.03;;;0.41;100.00
64872;BME280;51351;51.450;6.614;2024-01-16T01:03:00;100788.03;;;0.38;100.00
64872;BME280;51351;51.450;6.614;2024-01-16T01:05:26;100790.81;;;0.33;100.00
64872;BME280;51351;51.450;6.614;2024-01-16T01:07:57;100797.78;;;0.31;100.00
64872;BME280;51351;51.450;6.614;2024-01-16T01:10:22;100795.28;;;0.30;100.00
64872;BME280;51351;51.450;6.614;2024-01-16T01:12:49;100798.75;;;0.29;100.00
64872;BME280;51351;51.450;6.614;2024-01-16T01:15:14;100795.34;;;0.28;100.00
64872;BME280;51351;51.450;6.614;2024-01-16T01:17:41;100801.47;;;0.26;100.00
64872;BME280;51351;51.450;6.614;2024-01-16T01:20:08;100791.34;;;0.23;100.00
64872;BME280;51351;51.450;6.614;2024-01-16T01:22:34;100798.06;;;0.25;100.00
64872;BME280;51351;51.450;6.614;2024-01-16T01:24:59;100806.53;;;0.27;100.00
64872;BME280;51351;51.450;6.614;2024-01-16T01:27:25;100803.81;;;0.30;100.00
64872;BME280;51351;51.450;6.614;2024-01-16T01:29:50;100812.13;;;0.35;100.00
64872;BME280;51351;51.450;6.614;2024-01-16T01:32:17;100804.50;;;0.34;100.00
64872;BME280;51351;51.450;6.614;2024-01-16T01:34:42;100804.56;;;0.32;100.00
64872;BME280;51351;51.450;6.614;2024-01-16T01:37:08;100809.72;;;0.32;100.00
64872;BME280;51351;51.450;6.614;2024-01-16T01:39:33;100803.66;;;0.33;100.00
64872;BME280;51351;51.450;6.614;2024-01-16T01:41:59;100813.78;;;0.36;100.00
64872;BME280;51351;51.450;6.614;2024-01-16T01:44:24;100815.41;;;0.39;100.00
64872;BME280;51351;51.450;6.614;2024-01-16T01:46:51;100817.19;;;0.37;100.00
64872;BME280;51351;51.450;6.614;2024-01-16T01:49:16;100813.94;;;0.33;100.00
64872;BME280;51351;51.450;6.614;2024-01-16T01:51:43;100815.75;;;0.31;100.00
64872;BME280;51351;51.450;6.614;2024-01-16T01:54:09;100811.47;;;0.32;100.00
64872;BME280;51351;51.450;6.614;2024-01-16T01:56:35;100819.06;;;0.33;100.00
64872;BME280;51351;51.450;6.614;2024-01-16T01:59:01;100822.47;;;0.34;100.00
64872;BME280;51351;51.450;6.614;2024-01-16T02:01:29;100825.91;;;0.34;100.00
64872;BME280;51351;51.450;6.614;2024-01-16T02:03:57;100821.56;;;0.35;100.00
64872;BME280;51351;51.450;6.614;2024-01-16T02:06:24;100829.97;;;0.38;100.00
64872;BME280;51351;51.450;6.614;2024-01-16T02:08:50;100830.69;;;0.42;100.00
64872;BME280;51351;51.450;6.614;2024-01-16T02:11:16;100828.84;;;0.44;100.00
64872;BME280;51351;51.450;6.614;2024-01-16T02:13:42;100827.88;;;0.46;100.00
64872;BME280;51351;51.450;6.614;2024-01-16T02:16:18;100828.72;;;0.47;100.00
64872;BME280;51351;51.450;6.614;2024-01-16T02:18:44;100831.22;;;0.48;100.00
64872;BME280;51351;51.450;6.614;2024-01-16T02:21:10;100826.00;;;0.50;100.00
64872;BME280;51351;51.450;6.614;2024-01-16T02:23:36;100821.72;;;0.50;100.00
64872;BME280;51351;51.450;6.614;2024-01-16T02:26:02;100818.22;;;0.51;100.00
64872;BME280;51351;51.450;6.614;2024-01-16T02:28:28;100822.38;;;0.54;100.00
64872;BME280;51351;51.450;6.614;2024-01-16T02:30:54;100819.81;;;0.54;100.00
64872;BME280;51351;51.450;6.614;2024-01-16T02:33:19;100815.53;;;0.54;100.00
64872;BME280;51351;51.450;6.614;2024-01-16T02:35:45;100818.16;;;0.53;100.00
64872;BME280;51351;51.450;6.614;2024-01-16T02:38:13;100814.75;;;0.52;100.00
64872;BME280;51351;51.450;6.614;2024-01-16T02:40:38;100809.75;;;0.49;100.00
64872;BME280;51351;51.450;6.614;2024-01-16T02:43:04;100808.09;;;0.48;100.00
64872;BME280;51351;51.450;6.614;2024-01-16T02:45:29;100805.66;;;0.45;100.00
64872;BME280;51351;51.450;6.614;2024-01-16T02:47:55;100806.66;;;0.43;100.00
64872;BME280;51351;51.450;6.614;2024-01-16T02:50:20;100803.31;;;0.41;100.00
64872;BME280;51351;51.450;6.614;2024-01-16T02:52:48;100808.44;;;0.41;100.00
64872;BME280;51351;51.450;6.614;2024-01-16T02:55:13;100804.28;;;0.38;100.00
64872;BME280;51351;51.450;6.614;2024-01-16T02:57:39;100806.78;;;0.40;100.00
64872;BME280;51351;51.450;6.614;2024-01-16T03:00:05;100805.00;;;0.42;100.00
64872;BME280;51351;51.450;6.614;2024-01-16T03:02:33;100812.63;;;0.43;100.00
64872;BME280;51351;51.450;6.614;2024-01-16T03:04:58;100806.66;;;0.43;100.00
64872;BME280;51351;51.450;6.614;2024-01-16T03:07:24;100809.16;;;0.44;100.00
64872;BME280;51351;51.450;6.614;2024-01-16T03:09:49;100809.97;;;0.45;100.00
64872;BME280;51351;51.450;6.614;2024-01-16T03:12:15;100808.31;;;0.44;100.00
64872;BME280;51351;51.450;6.614;2024-01-16T03:14:40;100805.94;;;0.39;100.00
64872;BME280;51351;51.450;6.614;2024-01-16T03:17:06;100807.69;;;0.39;100.00
64872;BME280;51351;51.450;6.614;2024-01-16T03:19:32;100801.78;;;0.37;100.00
64872;BME280;51351;51.450;6.614;2024-01-16T03:21:57;100800.94;;;0.36;100.00
64872;BME280;51351;51.450;6.614;2024-01-16T03:24:23;100808.66;;;0.36;100.00
64872;BME280;51351;51.450;6.614;2024-01-16T03:26:49;100810.41;;;0.36;100.00
64872;BME280;51351;51.450;6.614;2024-01-16T03:29:14;100811.22;;;0.36;100.00
64872;BME280;51351;51.450;6.614;2024-01-16T03:31:40;100812.91;;;0.37;100.00
64872;BME280;51351;51.450;6.614;2024-01-16T03:34:06;100810.28;;;0.39;100.00
64872;BME280;51351;51.450;6.614;2024-01-16T03:36:34;100811.94;;;0.40;100.00
64872;BME280;51351;51.450;6.614;2024-01-16T03:38:59;100810.19;;;0.40;100.00
64872;BME280;51351;51.450;6.614;2024-01-16T03:41:24;100809.22;;;0.43;100.00
64872;BME280;51351;51.450;6.614;2024-01-16T03:43:50;100801.50;;;0.43;100.00
64872;BME280;51351;51.450;6.614;2024-01-16T03:46:15;100807.56;;;0.42;100.00
64872;BME280;51351;51.450;6.614;2024-01-16T03:48:42;100810.19;;;0.40;100.00
64872;BME280;51351;51.450;6.614;2024-01-16T03:51:07;100805.94;;;0.39;100.00
64872;BME280;51351;51.450;6.614;2024-01-16T03:53:32;100814.56;;;0.38;100.00
64872;BME280;51351;51.450;6.614;2024-01-16T03:55:58;100812.06;;;0.37;100.00
64872;BME280;51351;51.450;6.614;2024-01-16T03:58:23;100818.06;;;0.37;100.00
64872;BME280;51351;51.450;6.614;2024-01-16T04:00:49;100812.91;;;0.37;100.00
64872;BME280;51351;51.450;6.614;2024-01-16T04:03:16;100817.06;;;0.40;100.00
64872;BME280;51351;51.450;6.614;2024-01-16T04:05:42;100810.94;;;0.42;100.00
64872;BME280;51351;51.450;6.614;2024-01-16T04:08:07;100810.72;;;0.47;100.00
64872;BME280;51351;51.450;6.614;2024-01-16T04:10:33;100822.53;;;0.51;100.00
64872;BME280;51351;51.450;6.614;2024-01-16T04:13:01;100813.94;;;0.52;100.00
64872;BME280;51351;51.450;6.614;2024-01-16T04:15:27;100814.81;;;0.51;100.00
64872;BME280;51351;51.450;6.614;2024-01-16T04:17:53;100803.81;;;0.49;100.00
64872;BME280;51351;51.450;6.614;2024-01-16T04:20:19;100812.38;;;0.48;100.00
64872;BME280;51351;51.450;6.614;2024-01-16T04:22:45;100819.34;;;0.46;100.00
64872;BME280;51351;51.450;6.614;2024-01-16T04:25:11;100814.97;;;0.48;100.00
64872;BME280;51351;51.450;6.614;2024-01-16T04:27:36;100800.38;;;0.48;100.00
64872;BME280;51351;51.450;6.614;2024-01-16T04:30:02;100814.00;;;0.50;100.00
64872;BME280;51351;51.450;6.614;2024-01-16T04:32:28;100821.66;;;0.52;100.00
64872;BME280;51351;51.450;6.614;2024-01-16T04:34:53;100804.47;;;0.52;100.00
64872;BME280;51351;51.450;6.614;2024-01-16T04:37:19;100807.94;;;0.51;100.00
64872;BME280;51351;51.450;6.614;2024-01-16T04:39:44;100811.38;;;0.52;100.00
64872;BME280;51351;51.450;6.614;2024-01-16T04:42:10;100808.72;;;0.53;100.00
64872;BME280;51351;51.450;6.614;2024-01-16T04:44:36;100801.03;;;0.53;100.00
64872;BME280;51351;51.450;6.614;2024-01-16T04:47:02;100806.97;;;0.54;100.00
64872;BME280;51351;51.450;6.614;2024-01-16T04:49:27;100794.19;;;0.52;100.00
64872;BME280;51351;51.450;6.614;2024-01-16T04:51:53;100791.69;;;0.51;100.00
64872;BME280;51351;51.450;6.614;2024-01-16T04:54:19;100801.31;;;0.47;100.00
64872;BME280;51351;51.450;6.614;2024-01-16T04:56:45;100799.84;;;0.42;100.00
64872;BME280;51351;51.450;6.614;2024-01-16T04:59:10;100797.44;;;0.39;100.00
64872;BME280;51351;51.450;6.614;2024-01-16T05:01:36;100795.88;;;0.35;100.00
64872;BME280;51351;51.450;6.614;2024-01-16T05:04:02;100790.06;;;0.31;100.00
64872;BME280;51351;51.450;6.614;2024-01-16T05:06:29;100794.44;;;0.29;100.00
64872;BME280;51351;51.450;6.614;2024-01-16T05:08:55;100791.25;;;0.24;100.00
64872;BME280;51351;51.450;6.614;2024-01-16T05:11:20;100792.25;;;0.22;100.00
64872;BME280;51351;51.450;6.614;2024-01-16T05:13:46;100795.03;;;0.17;100.00
64872;BME280;51351;51.450;6.614;2024-01-16T05:16:13;100785.69;;;0.15;100.00
64872;BME280;51351;51.450;6.614;2024-01-16T05:18:41;100787.53;;;0.13;100.00
64872;BME280;51351;51.450;6.614;2024-01-16T05:21:07;100780.69;;;0.12;100.00
64872;BME280;51351;51.450;6.614;2024-01-16T05:23:32;100781.59;;;0.11;100.00
64872;BME280;51351;51.450;6.614;2024-01-16T05:25:58;100784.31;;;0.08;100.00
64872;BME280;51351;51.450;6.614;2024-01-16T05:28:23;100785.38;;;0.03;100.00
64872;BME280;51351;51.450;6.614;2024-01-16T05:30:49;100788.00;;;0.02;100.00
64872;BME280;51351;51.450;6.614;2024-01-16T05:33:14;100788.91;;;0.01;100.00
64872;BME280;51351;51.450;6.614;2024-01-16T05:35:40;100784.59;;;0.01;100.00
64872;BME280;51351;51.450;6.614;2024-01-16T05:38:05;100786.28;;;0.03;100.00
64872;BME280;51351;51.450;6.614;2024-01-16T05:40:32;100780.22;;;0.03;100.00
64872;BME280;51351;51.450;6.614;2024-01-16T05:42:57;100772.59;;;0.02;100.00
64872;BME280;51351;51.450;6.614;2024-01-16T05:45:22;100776.88;;;0.01;100.00
64872;BME280;51351;51.450;6.614;2024-01-16T05:47:48;100774.41;;;0.00;100.00
64872;BME280;51351;51.450;6.614;2024-01-16T05:50:13;100773.66;;;-0.02;100.00
64872;BME280;51351;51.450;6.614;2024-01-16T05:52:42;100773.78;;;-0.05;100.00
64872;BME280;51351;51.450;6.614;2024-01-16T05:55:08;100768.72;;;-0.07;100.00
64872;BME280;51351;51.450;6.614;2024-01-16T05:57:33;100771.41;;;-0.10;100.00
64872;BME280;51351;51.450;6.614;2024-01-16T05:59:59;100771.47;;;-0.11;100.00
64872;BME280;51351;51.450;6.614;2024-01-16T06:02:30;100764.75;;;-0.14;100.00
64872;BME280;51351;51.450;6.614;2024-01-16T06:04:56;100765.66;;;-0.15;100.00
64872;BME280;51351;51.450;6.614;2024-01-16T06:07:21;100766.56;;;-0.16;100.00
64872;BME280;51351;51.450;6.614;2024-01-16T06:09:47;100766.63;;;-0.17;100.00
64872;BME280;51351;51.450;6.614;2024-01-16T06:12:12;100776.16;;;-0.19;100.00
64872;BME280;51351;51.450;6.614;2024-01-16T06:14:38;100765.94;;;-0.21;100.00
64872;BME280;51351;51.450;6.614;2024-01-16T06:17:04;100766.81;;;-0.22;100.00
64872;BME280;51351;51.450;6.614;2024-01-16T06:19:32;100759.22;;;-0.23;100.00
64872;BME280;51351;51.450;6.614;2024-01-16T06:21:58;100758.44;;;-0.25;100.00
64872;BME280;51351;51.450;6.614;2024-01-16T06:24:24;100764.50;;;-0.26;100.00
64872;BME280;51351;51.450;6.614;2024-01-16T06:26:49;100761.94;;;-0.26;100.00
64872;BME280;51351;51.450;6.614;2024-01-16T06:29:15;100764.56;;;-0.28;100.00
64872;BME280;51351;51.450;6.614;2024-01-16T06:31:40;100753.50;;;-0.30;100.00
64872;BME280;51351;51.450;6.614;2024-01-16T06:34:06;100758.78;;;-0.33;100.00
64872;BME280;51351;51.450;6.614;2024-01-16T06:36:31;100768.22;;;-0.33;100.00
64872;BME280;51351;51.450;6.614;2024-01-16T06:38:56;100771.69;;;-0.34;100.00
64872;BME280;51351;51.450;6.614;2024-01-16T06:41:22;100773.44;;;-0.35;100.00
64872;BME280;51351;51.450;6.614;2024-01-16T06:43:47;100774.25;;;-0.34;100.00
64872;BME280;51351;51.450;6.614;2024-01-16T06:46:13;100775.16;;;-0.35;100.00
64872;BME280;51351;51.450;6.614;2024-01-16T06:48:38;100770.88;;;-0.35;100.00
64872;BME280;51351;51.450;6.614;2024-01-16T06:51:04;100775.09;;;-0.34;100.00
64872;BME280;51351;51.450;6.614;2024-01-16T06:53:30;100774.19;;;-0.33;100.00
64872;BME280;51351;51.450;6.614;2024-01-16T06:55:55;100773.25;;;-0.32;100.00
64872;BME280;51351;51.450;6.614;2024-01-16T06:58:21;100772.44;;;-0.32;100.00
64872;BME280;51351;51.450;6.614;2024-01-16T07:00:47;100779.25;;;-0.31;100.00
64872;BME280;51351;51.450;6.614;2024-01-16T07:03:13;100779.19;;;-0.30;100.00
64872;BME280;51351;51.450;6.614;2024-01-16T07:05:40;100785.97;;;-0.29;100.00
64872;BME280;51351;51.450;6.614;2024-01-16T07:08:09;100785.97;;;-0.29;100.00
64872;BME280;51351;51.450;6.614;2024-01-16T07:10:35;100791.09;;;-0.29;100.00
64872;BME280;51351;51.450;6.614;2024-01-16T07:13:01;100790.34;;;-0.31;100.00
64872;BME280;51351;51.450;6.614;2024-01-16T07:15:29;100794.63;;;-0.31;100.00
64872;BME280;51351;51.450;6.614;2024-01-16T07:17:55;100793.03;;;-0.34;100.00
64872;BME280;51351;51.450;6.614;2024-01-16T07:20:20;100801.59;;;-0.33;100.00
64872;BME280;51351;51.450;6.614;2024-01-16T07:22:46;100805.09;;;-0.36;100.00
64872;BME280;51351;51.450;6.614;2024-01-16T07:25:11;100805.03;;;-0.34;100.00
64872;BME280;51351;51.450;6.614;2024-01-16T07:27:37;100808.50;;;-0.35;100.00
64872;BME280;51351;51.450;6.614;2024-01-16T07:30:06;100813.56;;;-0.34;100.00
64872;BME280;51351;51.450;6.614;2024-01-16T07:32:32;100811.13;;;-0.37;100.00
64872;BME280;51351;51.450;6.614;2024-01-16T07:34:58;100809.47;;;-0.38;100.00
64872;BME280;51351;51.450;6.614;2024-01-16T07:37:23;100807.72;;;-0.37;100.00
64872;BME280;51351;51.450;6.614;2024-01-16T07:39:49;100807.78;;;-0.39;100.00
64872;BME280;51351;51.450;6.614;2024-01-16T07:42:14;100812.13;;;-0.39;100.00
64872;BME280;51351;51.450;6.614;2024-01-16T07:44:40;100814.69;;;-0.39;100.00
64872;BME280;51351;51.450;6.614;2024-01-16T07:47:05;100823.19;;;-0.39;100.00
64872;BME280;51351;51.450;6.614;2024-01-16T07:49:31;100821.41;;;-0.37;100.00
64872;BME280;51351;51.450;6.614;2024-01-16T07:51:56;100813.78;;;-0.38;100.00
64872;BME280;51351;51.450;6.614;2024-01-16T07:54:22;100821.34;;;-0.35;100.00
64872;BME280;51351;51.450;6.614;2024-01-16T07:56:48;100817.72;;;-0.31;100.00
64872;BME280;51351;51.450;6.614;2024-01-16T07:59:13;100813.38;;;-0.29;100.00
64872;BME280;51351;51.450;6.614;2024-01-16T08:01:39;100810.81;;;-0.29;100.00
64872;BME280;51351;51.450;6.614;2024-01-16T08:04:04;100813.31;;;-0.28;100.00
64872;BME280;51351;51.450;6.614;2024-01-16T08:06:30;100814.84;;;-0.24;100.00
64872;BME280;51351;51.450;6.614;2024-01-16T08:08:56;100817.47;;;-0.25;100.00
64872;BME280;51351;51.450;6.614;2024-01-16T08:11:21;100818.25;;;-0.23;100.00
64872;BME280;51351;51.450;6.614;2024-01-16T08:13:47;100824.97;;;-0.21;100.00
64872;BME280;51351;51.450;6.614;2024-01-16T08:16:12;100825.78;;;-0.20;100.00
64872;BME280;51351;51.450;6.614;2024-01-16T08:18:38;100827.34;;;-0.16;100.00
64872;BME280;51351;51.450;6.614;2024-01-16T08:21:03;100829.00;;;-0.15;100.00
64872;BME280;51351;51.450;6.614;2024-01-16T08:23:29;100826.31;;;-0.12;100.00
64872;BME280;51351;51.450;6.614;2024-01-16T08:25:54;100819.50;;;-0.13;100.00
64872;BME280;51351;51.450;6.614;2024-01-16T08:28:20;100830.47;;;-0.10;100.00
64872;BME280;51351;51.450;6.614;2024-01-16T08:30:46;100831.16;;;-0.06;100.00
64872;BME280;51351;51.450;6.614;2024-01-16T08:33:12;100828.59;;;-0.06;100.00
64872;BME280;51351;51.450;6.614;2024-01-16T08:35:38;100835.31;;;-0.04;100.00
64872;BME280;51351;51.450;6.614;2024-01-16T08:38:04;100843.03;;;-0.04;100.00
64872;BME280;51351;51.450;6.614;2024-01-16T08:40:30;100845.59;;;-0.04;100.00
64872;BME280;51351;51.450;6.614;2024-01-16T08:42:55;100843.94;;;-0.05;100.00
64872;BME280;51351;51.450;6.614;2024-01-16T08:45:23;100842.25;;;-0.06;100.00
64872;BME280;51351;51.450;6.614;2024-01-16T08:47:49;100849.13;;;-0.06;100.00
64872;BME280;51351;51.450;6.614;2024-01-16T08:50:15;100844.13;;;-0.09;100.00
64872;BME280;51351;51.450;6.614;2024-01-16T08:52:41;100844.94;;;-0.09;100.00
64872;BME280;51351;51.450;6.614;2024-01-16T08:55:07;100852.72;;;-0.10;100.00
64872;BME280;51351;51.450;6.614;2024-01-16T08:57:34;100852.53;;;-0.06;100.00
64872;BME280;51351;51.450;6.614;2024-01-16T09:00:00;100840.66;;;-0.08;100.00
64872;BME280;51351;51.450;6.614;2024-01-16T09:02:26;100847.31;;;-0.04;100.00
64872;BME280;51351;51.450;6.614;2024-01-16T09:04:55;100843.88;;;-0.03;100.00
64872;BME280;51351;51.450;6.614;2024-01-16T09:07:20;100843.09;;;-0.05;100.00
64872;BME280;51351;51.450;6.614;2024-01-16T09:09:46;100848.09;;;-0.02;100.00
64872;BME280;51351;51.450;6.614;2024-01-16T09:12:11;100845.47;;;-0.01;100.00
64872;BME280;51351;51.450;6.614;2024-01-16T09:14:37;100850.19;;;0.09;100.00
64872;BME280;51351;51.450;6.614;2024-01-16T09:17:04;100852.69;;;0.10;100.00
64872;BME280;51351;51.450;6.614;2024-01-16T09:19:30;100845.66;;;0.14;100.00
64872;BME280;51351;51.450;6.614;2024-01-16T09:21:56;100842.84;;;0.20;100.00
64872;BME280;51351;51.450;6.614;2024-01-16T09:24:21;100854.69;;;0.22;100.00
64872;BME280;51351;51.450;6.614;2024-01-16T09:26:47;100848.50;;;0.26;100.00
64872;BME280;51351;51.450;6.614;2024-01-16T09:29:13;100849.34;;;0.27;100.00
64872;BME280;51351;51.450;6.614;2024-01-16T09:31:43;100843.09;;;0.32;100.00
64872;BME280;51351;51.450;6.614;2024-01-16T09:34:08;100845.41;;;0.38;100.00
64872;BME280;51351;51.450;6.614;2024-01-16T09:36:34;100833.47;;;0.37;100.00
64872;BME280;51351;51.450;6.614;2024-01-16T09:39:04;100835.91;;;0.40;100.00
64872;BME280;51351;51.450;6.614;2024-01-16T09:41:34;100835.91;;;0.40;100.00
64872;BME280;51351;51.450;6.614;2024-01-16T09:43:59;100843.34;;;0.45;100.00
64872;BME280;51351;51.450;6.614;2024-01-16T09:46:26;100837.34;;;0.46;100.00
64872;BME280;51351;51.450;6.614;2024-01-16T09:48:55;100837.13;;;0.50;100.00
64872;BME280;51351;51.450;6.614;2024-01-16T09:51:21;100838.84;;;0.50;100.00
64872;BME280;51351;51.450;6.614;2024-01-16T09:53:47;100843.84;;;0.53;100.00
64872;BME280;51351;51.450;6.614;2024-01-16T09:56:16;100835.94;;;0.57;100.00
64872;BME280;51351;51.450;6.614;2024-01-16T09:58:48;100839.38;;;0.56;100.00
64872;BME280;51351;51.450;6.614;2024-01-16T10:01:16;100835.72;;;0.62;100.00
64872;BME280;51351;51.450;6.614;2024-01-16T10:03:46;100831.53;;;0.59;100.00
64872;BME280;51351;51.450;6.614;2024-01-16T10:06:13;100826.69;;;0.72;100.00
64872;BME280;51351;51.450;6.614;2024-01-16T10:08:40;100829.63;;;0.81;100.00
64872;BME280;51351;51.450;6.614;2024-01-16T10:11:06;100830.53;;;0.80;100.00
64872;BME280;51351;51.450;6.614;2024-01-16T10:13:36;100823.22;;;0.90;100.00
64872;BME280;51351;51.450;6.614;2024-01-16T10:16:02;100825.63;;;0.93;100.00
64872;BME280;51351;51.450;6.614;2024-01-16T10:18:29;100824.88;;;0.91;100.00
64872;BME280;51351;51.450;6.614;2024-01-16T10:20:55;100829.88;;;0.94;100.00
64872;BME280;51351;51.450;6.614;2024-01-16T10:23:29;100820.78;;;0.87;100.00
64872;BME280;51351;51.450;6.614;2024-01-16T10:26:07;100825.13;;;0.86;100.00
64872;BME280;51351;51.450;6.614;2024-01-16T10:28:40;100820.34;;;0.79;100.00
64872;BME280;51351;51.450;6.614;2024-01-16T10:31:10;100812.75;;;0.76;100.00
64872;BME280;51351;51.450;6.614;2024-01-16T10:33:37;100811.84;;;0.77;100.00
64872;BME280;51351;51.450;6.614;2024-01-16T10:38:34;100810.41;;;0.71;100.00
64872;BME280;51351;51.450;6.614;2024-01-16T10:41:11;100817.13;;;0.74;100.00
64872;BME280;51351;51.450;6.614;2024-01-16T10:43:37;100805.06;;;0.76;100.00
64872;BME280;51351;51.450;6.614;2024-01-16T10:48:35;100817.84;;;0.77;100.00
64872;BME280;51351;51.450;6.614;2024-01-16T10:51:02;100804.13;;;0.77;100.00
64872;BME280;51351;51.450;6.614;2024-01-16T10:53:32;100806.41;;;0.83;100.00
64872;BME280;51351;51.450;6.614;2024-01-16T10:56:00;100807.72;;;0.91;100.00
64872;BME280;51351;51.450;6.614;2024-01-16T10:58:30;100797.56;;;1.05;100.00
64872;BME280;51351;51.450;6.614;2024-01-16T11:00:59;100798.78;;;1.15;100.00
64872;BME280;51351;51.450;6.614;2024-01-16T11:03:40;100788.81;;;1.26;100.00
64872;BME280;51351;51.450;6.614;2024-01-16T11:06:08;100784.53;;;1.42;100.00
64872;BME280;51351;51.450;6.614;2024-01-16T11:08:37;100782.97;;;1.55;100.00
64872;BME280;51351;51.450;6.614;2024-01-16T11:11:04;100784.78;;;1.70;100.00
64872;BME280;51351;51.450;6.614;2024-01-16T11:13:34;100788.22;;;1.86;100.00
64872;BME280;51351;51.450;6.614;2024-01-16T11:16:02;100778.31;;;1.94;100.00
64872;BME280;51351;51.450;6.614;2024-01-16T11:18:30;100782.06;;;1.89;100.00
64872;BME280;51351;51.450;6.614;2024-01-16T11:20:56;100787.91;;;1.92;100.00
64872;BME280;51351;51.450;6.614;2024-01-16T11:23:23;100789.97;;;2.01;100.00
64872;BME280;51351;51.450;6.614;2024-01-16T11:25:49;100789.31;;;2.13;100.00
64872;BME280;51351;51.450;6.614;2024-01-16T11:28:15;100794.31;;;2.16;100.00
64872;BME280;51351;51.450;6.614;2024-01-16T11:30:42;100800.38;;;2.31;100.00
64872;BME280;51351;51.450;6.614;2024-01-16T11:35:56;100787.13;;;2.21;100.00
64872;BME280;51351;51.450;6.614;2024-01-16T11:38:25;100785.00;;;2.14;100.00
64872;BME280;51351;51.450;6.614;2024-01-16T11:40:54;100778.00;;;2.16;100.00
64872;BME280;51351;51.450;6.614;2024-01-16T11:46:01;100770.72;;;2.24;100.00
64872;BME280;51351;51.450;6.614;2024-01-16T11:48:28;100757.63;;;2.11;100.00
64872;BME280;51351;51.450;6.614;2024-01-16T11:50:54;100760.66;;;2.19;100.00
64872;BME280;51351;51.450;6.614;2024-01-16T11:53:38;100757.75;;;2.25;100.00
64872;BME280;51351;51.450;6.614;2024-01-16T12:01:29;100754.47;;;2.22;100.00
64872;BME280;51351;51.450;6.614;2024-01-16T12:04:01;100747.50;;;2.24;100.00
64872;BME280;51351;51.450;6.614;2024-01-16T12:06:27;100747.81;;;2.33;100.00
64872;BME280;51351;51.450;6.614;2024-01-16T12:08:53;100750.25;;;2.36;100.00
64872;BME280;51351;51.450;6.614;2024-01-16T12:11:19;100739.00;;;2.37;100.00
64872;BME280;51351;51.450;6.614;2024-01-16T12:14:00;100738.34;;;2.34;100.00
64872;BME280;51351;51.450;6.614;2024-01-16T12:16:26;100730.19;;;2.41;100.00
64872;BME280;51351;51.450;6.614;2024-01-16T12:19:06;100727.25;;;2.47;100.00
64872;BME280;51351;51.450;6.614;2024-01-16T12:21:46;100721.47;;;2.44;100.00
64872;BME280;51351;51.450;6.614;2024-01-16T12:24:11;100719.28;;;2.52;100.00
64872;BME280;51351;51.450;6.614;2024-01-16T12:26:38;100718.34;;;2.53;100.00
64872;BME280;51351;51.450;6.614;2024-01-16T12:29:04;100714.88;;;2.54;100.00
64872;BME280;51351;51.450;6.614;2024-01-16T12:31:31;100716.31;;;2.44;100.00
64872;BME280;51351;51.450;6.614;2024-01-16T12:34:07;100706.38;;;2.52;100.00
64872;BME280;51351;51.450;6.614;2024-01-16T12:36:33;100707.41;;;2.49;100.00
64872;BME280;51351;51.450;6.614;2024-01-16T12:38:58;100703.75;;;2.38;100.00
64872;BME280;51351;51.450;6.614;2024-01-16T12:41:26;100699.53;;;2.37;100.00
64872;BME280;51351;51.450;6.614;2024-01-16T12:43:53;100696.97;;;2.37;100.00
64872;BME280;51351;51.450;6.614;2024-01-16T12:46:18;100701.09;;;2.39;100.00
64872;BME280;51351;51.450;6.614;2024-01-16T12:48:44;100692.53;;;2.39;100.00
64872;BME280;51351;51.450;6.614;2024-01-16T12:51:13;100689.59;;;2.45;100.00
64872;BME280;51351;51.450;6.614;2024-01-16T12:53:45;100685.63;;;2.39;100.00
64872;BME280;51351;51.450;6.614;2024-01-16T12:56:10;100693.03;;;2.45;100.00
64872;BME280;51351;51.450;6.614;2024-01-16T12:58:37;100686.78;;;2.49;100.00
64872;BME280;51351;51.450;6.614;2024-01-16T13:01:27;100691.97;;;2.64;100.00